АЭРОДРОМУУД

ICAO:
ZMCK
Нэр:
УЛААНБААТАР / Чингис Хаан
Ахц:
473849N 1064912E
020253 ZMUBYNYX
(A0498/22 NOTAMN
Q) ZMUB/QPITT/I /BO /A /000/999/4738N10649E005
A) ZMCK B) 2210060000 C) 2210192359
E) TRIGGER NOTAM - PERM AIRAC AIP AMDT 09/22 WEF 06 OCT 2022 CHANGES OF SID, STAR AND IAP.)
- 1 month ago -
METAR
No records found.
TAF
TAF ZMCK 020440Z 0206/0312 35006MPS 6000 SN SCT030 BKN080 TX00/0207Z TNM14/0221Z TEMPO 0206/0210 3000 BECMG 0211/0213 VRB02MPS 9999 NSW SCT033 SCT100 BECMG 0304/0306 29005MPS SCT100 BECMG 0309/0311 VRB02MPS=
- 17 hours ago -
TAF ZMCK 020440Z 0206/0312 35006MPS 6000 SN SCT030 BKN080 TX00/0207Z TNM14/0221Z TEMPO 0206/0210 3000 BECMG 0211/0213 VRB02MPS 9999 NSW SCT033 SCT100 BECMG 0304/0306 29005MPS SCT100 BECMG 0309/0311 VRB02MPS=
- 17 hours ago -